createdAt,value
2023-05-02T00:00:26.332Z,7.57
2023-05-02T00:02:53.233Z,7.72
2023-05-02T00:05:20.365Z,8.23
2023-05-02T00:07:47.962Z,10.27
2023-05-02T00:10:14.662Z,9.57
2023-05-02T00:12:41.646Z,10.32
2023-05-02T00:15:09.107Z,12.07
2023-05-02T00:17:35.732Z,10.90
2023-05-02T00:20:04.502Z,13.43
2023-05-02T00:22:31.261Z,12.65
2023-05-02T00:24:58.585Z,12.85
2023-05-02T00:27:25.321Z,12.88
2023-05-02T00:29:52.425Z,14.05
2023-05-02T00:32:19.034Z,14.82
2023-05-02T00:34:45.638Z,15.50
2023-05-02T00:37:13.156Z,15.52
2023-05-02T00:39:39.708Z,17.02
2023-05-02T00:42:06.464Z,17.08
2023-05-02T00:44:33.260Z,16.75
2023-05-02T00:47:02.005Z,16.63
2023-05-02T00:49:28.887Z,17.52
2023-05-02T00:51:55.563Z,16.10
2023-05-02T00:54:22.279Z,17.33
2023-05-02T00:56:48.952Z,15.68
2023-05-02T00:59:15.998Z,15.45
2023-05-02T01:01:48.758Z,15.88
2023-05-02T01:04:23.930Z,15.52
2023-05-02T01:07:01.699Z,15.23
2023-05-02T01:09:50.126Z,14.75
2023-05-02T01:12:43.725Z,16.33
2023-05-02T01:15:15.498Z,16.05
2023-05-02T01:17:42.730Z,15.40
2023-05-02T01:20:13.846Z,15.95
2023-05-02T01:22:41.148Z,15.13
2023-05-02T01:25:16.767Z,15.25
2023-05-02T01:27:46.174Z,15.35
2023-05-02T01:30:13.929Z,16.15
2023-05-02T01:32:41.898Z,14.60
2023-05-02T01:35:09.516Z,14.13
2023-05-02T01:37:37.439Z,15.47
2023-05-02T01:40:05.299Z,14.00
2023-05-02T01:42:32.913Z,14.88
2023-05-02T01:45:00.708Z,14.57
2023-05-02T01:47:28.121Z,14.98
2023-05-02T01:49:54.767Z,14.80
2023-05-02T01:52:22.464Z,15.93
2023-05-02T01:54:51.094Z,16.05
2023-05-02T01:57:18.571Z,15.65
2023-05-02T01:59:46.473Z,13.90
2023-05-02T02:02:14.192Z,15.40
2023-05-02T02:04:40.939Z,14.73
2023-05-02T02:07:10.184Z,13.88
2023-05-02T02:09:37.168Z,14.65
2023-05-02T02:12:14.643Z,14.52
2023-05-02T02:14:43.692Z,15.00
2023-05-02T02:17:22.603Z,14.88
2023-05-02T02:19:51.115Z,15.48
2023-05-02T02:24:44.589Z,13.95
2023-05-02T02:27:11.211Z,14.50
2023-05-02T02:29:37.912Z,14.63
2023-05-02T02:32:04.531Z,14.50
2023-05-02T02:34:31.234Z,14.73
2023-05-02T02:37:03.090Z,15.85
2023-05-02T02:39:35.580Z,14.52
2023-05-02T02:42:22.352Z,14.13
2023-05-02T02:44:56.552Z,13.93
2023-05-02T02:47:31.574Z,13.35
2023-05-02T02:50:16.960Z,13.60
2023-05-02T02:52:49.604Z,14.00
2023-05-02T02:55:24.477Z,14.45
2023-05-02T02:58:19.303Z,14.68
2023-05-02T03:00:47.006Z,15.05
2023-05-02T03:03:14.912Z,15.13
2023-05-02T03:05:43.875Z,14.32
2023-05-02T03:08:10.694Z,16.60
2023-05-02T03:10:37.279Z,17.00
2023-05-02T03:13:03.865Z,16.15
2023-05-02T03:15:52.442Z,14.52
2023-05-02T03:18:19.310Z,16.15
2023-05-02T03:20:46.175Z,14.82
2023-05-02T03:23:12.729Z,16.20
2023-05-02T03:25:39.483Z,16.80
2023-05-02T03:28:06.030Z,16.17
2023-05-02T03:30:32.615Z,15.88
2023-05-02T03:33:00.600Z,17.80
2023-05-02T03:35:27.294Z,17.50
2023-05-02T03:37:53.876Z,16.70
2023-05-02T03:40:21.932Z,17.20
2023-05-02T03:42:48.659Z,16.20
2023-05-02T03:45:15.319Z,17.45
2023-05-02T03:47:42.224Z,16.38
2023-05-02T03:50:09.151Z,15.25
2023-05-02T03:52:35.706Z,15.43
2023-05-02T03:55:02.452Z,13.70
2023-05-02T03:57:32.101Z,13.85
2023-05-02T03:59:58.997Z,15.02
2023-05-02T04:02:26.256Z,12.38
2023-05-02T04:04:52.924Z,12.88
2023-05-02T04:07:19.710Z,11.35
2023-05-02T04:09:46.677Z,10.75
2023-05-02T04:12:15.672Z,9.02
2023-05-02T04:14:42.266Z,7.85
2023-05-02T04:17:08.893Z,7.85
2023-05-02T04:19:35.694Z,8.05
2023-05-02T04:22:03.186Z,7.78
2023-05-02T04:24:29.720Z,7.25
2023-05-02T04:26:56.283Z,7.53
2023-05-02T04:29:22.845Z,7.65
2023-05-02T04:31:50.900Z,6.97
2023-05-02T04:34:17.606Z,7.95
2023-05-02T04:36:47.403Z,7.03
2023-05-02T04:39:14.086Z,6.70
2023-05-02T04:41:40.847Z,5.30
2023-05-02T04:44:07.443Z,5.90
2023-05-02T04:46:34.359Z,5.55
2023-05-02T04:49:00.995Z,5.47
2023-05-02T04:51:29.164Z,5.32
2023-05-02T04:53:55.771Z,4.93
2023-05-02T04:56:22.314Z,5.07
2023-05-02T04:58:48.915Z,5.10
2023-05-02T05:01:15.553Z,4.60
2023-05-02T05:03:42.434Z,4.28
2023-05-02T05:06:09.194Z,4.72
2023-05-02T05:08:35.890Z,5.18
2023-05-02T05:11:02.481Z,6.32
2023-05-02T05:13:29.037Z,6.00
2023-05-02T05:15:55.784Z,5.57
2023-05-02T05:18:22.457Z,5.18
2023-05-02T05:20:49.031Z,5.40
2023-05-02T05:23:16.190Z,5.70
2023-05-02T05:25:45.058Z,5.35
2023-05-02T05:28:12.763Z,5.13
2023-05-02T05:30:39.394Z,4.85
2023-05-02T05:33:05.998Z,5.63
2023-05-02T05:35:32.920Z,5.45
2023-05-02T05:37:59.521Z,6.30
2023-05-02T05:40:26.193Z,5.57
2023-05-02T05:42:52.825Z,4.82
2023-05-02T05:45:19.789Z,4.07
2023-05-02T05:47:46.626Z,4.97
2023-05-02T05:50:13.289Z,3.63
2023-05-02T05:52:39.954Z,3.53
2023-05-02T05:55:07.204Z,3.80
2023-05-02T05:57:34.162Z,3.53
2023-05-02T06:00:00.950Z,3.75
2023-05-02T06:02:27.936Z,3.67
2023-05-02T06:04:55.995Z,4.10
2023-05-02T06:07:23.089Z,3.70
2023-05-02T06:09:49.669Z,4.15
2023-05-02T06:12:16.698Z,3.55
2023-05-02T06:14:43.375Z,3.70
2023-05-02T06:17:09.947Z,3.42
2023-05-02T06:19:36.589Z,3.55
2023-05-02T06:22:03.160Z,3.92
2023-05-02T06:24:29.851Z,3.33
2023-05-02T06:26:56.413Z,3.60
2023-05-02T06:29:22.973Z,3.90
2023-05-02T06:31:51.436Z,3.13
2023-05-02T06:36:44.568Z,2.72
2023-05-02T06:39:11.249Z,4.00
2023-05-02T06:41:37.788Z,3.95
2023-05-02T06:44:04.498Z,4.05
2023-05-02T06:46:31.782Z,4.15
2023-05-02T06:48:58.481Z,4.22
2023-05-02T06:51:25.142Z,3.65
2023-05-02T06:53:51.788Z,4.47
2023-05-02T06:56:18.387Z,3.85
2023-05-02T06:58:44.997Z,4.13
2023-05-02T07:01:12.688Z,4.07
2023-05-02T07:03:39.408Z,4.15
2023-05-02T07:06:06.109Z,3.63
2023-05-02T07:08:32.718Z,5.25
2023-05-02T07:10:59.253Z,4.57
2023-05-02T07:13:25.894Z,5.28
2023-05-02T07:15:53.264Z,4.40
2023-05-02T07:18:19.990Z,4.57
2023-05-02T07:20:46.847Z,4.50
2023-05-02T07:23:13.416Z,4.82
2023-05-02T07:25:40.105Z,4.78
2023-05-02T07:28:07.113Z,3.75
2023-05-02T07:30:33.836Z,5.15
2023-05-02T07:33:00.549Z,4.53
2023-05-02T07:35:27.166Z,4.50
2023-05-02T07:37:53.735Z,4.30
2023-05-02T07:40:20.822Z,4.18
2023-05-02T07:42:47.397Z,4.43
2023-05-02T07:45:14.247Z,3.63
2023-05-02T07:47:41.906Z,4.22
2023-05-02T07:50:09.209Z,3.95
2023-05-02T07:52:35.827Z,3.17
2023-05-02T07:55:02.388Z,3.72
2023-05-02T07:57:28.978Z,3.78
2023-05-02T07:59:57.362Z,3.42
2023-05-02T08:04:50.897Z,3.47
2023-05-02T08:07:17.519Z,3.15
2023-05-02T08:09:44.115Z,3.15
2023-05-02T08:12:10.724Z,3.60
2023-05-02T08:14:37.305Z,3.50
2023-05-02T08:17:03.846Z,2.88
2023-05-02T08:19:30.490Z,26.02
2023-05-02T08:21:57.082Z,3.78
2023-05-02T08:24:23.853Z,3.40
2023-05-02T08:26:50.903Z,1.98
2023-05-02T08:29:17.482Z,2.05
2023-05-02T08:31:44.186Z,1.80
2023-05-02T08:34:10.774Z,2.60
2023-05-02T08:36:37.412Z,2.25
2023-05-02T08:39:04.112Z,2.05
2023-05-02T08:41:31.396Z,1.90
2023-05-02T08:43:59.686Z,2.70
2023-05-02T08:46:26.731Z,2.17
2023-05-02T08:48:54.037Z,2.40
2023-05-02T08:51:22.752Z,2.33
2023-05-02T08:53:49.413Z,2.40
2023-05-02T08:56:16.271Z,2.80
2023-05-02T08:58:42.828Z,2.20
2023-05-02T09:01:17.370Z,2.20
2023-05-02T09:03:46.195Z,2.10
2023-05-02T09:06:18.205Z,1.77
2023-05-02T09:08:48.845Z,2.45
2023-05-02T09:11:16.758Z,1.85
2023-05-02T09:13:47.757Z,2.28
2023-05-02T09:16:16.830Z,2.47
2023-05-02T09:18:47.434Z,2.42
2023-05-02T09:21:20.634Z,2.50
2023-05-02T09:23:48.978Z,2.97
2023-05-02T09:26:22.325Z,2.35
2023-05-02T09:28:50.457Z,3.25
2023-05-02T09:31:37.405Z,2.65
2023-05-02T09:34:14.388Z,2.47
2023-05-02T09:36:52.201Z,2.13
2023-05-02T09:39:23.788Z,2.70
2023-05-02T09:41:52.416Z,2.95
2023-05-02T09:44:21.513Z,2.65
2023-05-02T09:46:49.949Z,2.45
2023-05-02T09:49:20.202Z,2.45
2023-05-02T09:51:47.975Z,3.17
2023-05-02T09:54:15.563Z,2.80
2023-05-02T09:56:57.664Z,3.63
2023-05-02T09:59:24.619Z,3.38
2023-05-02T10:01:59.305Z,2.67
2023-05-02T10:04:26.764Z,4.78
2023-05-02T10:06:55.194Z,2.78
2023-05-02T10:09:22.483Z,2.60
2023-05-02T10:11:54.248Z,3.08
2023-05-02T10:14:23.053Z,2.72
2023-05-02T10:17:01.593Z,3.25
2023-05-02T10:19:51.454Z,2.45
2023-05-02T10:22:19.493Z,2.28
2023-05-02T10:24:49.014Z,2.78
2023-05-02T10:27:15.995Z,3.40
2023-05-02T10:29:42.935Z,2.63
2023-05-02T10:32:09.721Z,2.47
2023-05-02T10:34:36.349Z,2.75
2023-05-02T10:37:03.180Z,2.35
2023-05-02T10:39:30.375Z,2.80
2023-05-02T10:41:58.691Z,2.42
2023-05-02T10:44:35.861Z,2.15
2023-05-02T10:47:18.630Z,2.72
2023-05-02T10:49:53.688Z,2.83
2023-05-02T10:52:35.293Z,2.15
2023-05-02T10:55:21.663Z,2.50
2023-05-02T10:57:57.435Z,2.42
2023-05-02T11:00:34.348Z,2.38
2023-05-02T11:03:01.957Z,2.25
2023-05-02T11:05:28.991Z,2.35
2023-05-02T11:08:20.214Z,2.05
2023-05-02T11:10:48.781Z,2.40
2023-05-02T11:13:15.639Z,2.58
2023-05-02T11:15:42.236Z,2.22
2023-05-02T11:18:12.152Z,2.50
2023-05-02T11:20:42.986Z,2.25
2023-05-02T11:23:16.055Z,2.72
2023-05-02T11:25:44.532Z,2.47
2023-05-02T11:28:43.535Z,2.53
2023-05-02T11:31:30.061Z,2.60
2023-05-02T11:34:01.390Z,2.67
2023-05-02T11:36:32.281Z,3.17
2023-05-02T11:39:00.210Z,2.88
2023-05-02T11:41:39.998Z,2.35
2023-05-02T11:44:06.820Z,2.33
2023-05-02T11:46:33.820Z,2.50
2023-05-02T11:49:01.553Z,3.15
2023-05-02T11:51:28.261Z,2.47
2023-05-02T11:53:54.875Z,2.60
2023-05-02T11:56:24.941Z,2.40
2023-05-02T11:59:03.304Z,2.78
2023-05-02T12:04:04.782Z,2.55
2023-05-02T12:06:31.444Z,2.70
2023-05-02T12:09:08.914Z,2.22
2023-05-02T12:11:36.130Z,2.17
2023-05-02T12:14:03.917Z,3.03
2023-05-02T12:16:31.025Z,2.80
2023-05-02T12:18:59.579Z,3.58
2023-05-02T12:21:29.326Z,2.63
2023-05-02T12:23:57.207Z,2.83
2023-05-02T12:26:29.601Z,3.65
2023-05-02T12:28:56.669Z,2.63
2023-05-02T12:31:23.910Z,3.03
2023-05-02T12:33:52.507Z,2.55
2023-05-02T12:36:19.746Z,2.80
2023-05-02T12:38:52.646Z,2.97
2023-05-02T12:41:30.866Z,3.65
2023-05-02T12:43:58.728Z,2.95
2023-05-02T12:46:25.513Z,3.45
2023-05-02T12:49:09.415Z,3.33
2023-05-02T12:51:36.880Z,3.60
2023-05-02T12:54:04.322Z,3.13
2023-05-02T12:56:34.644Z,3.35
2023-05-02T12:59:03.816Z,2.92
2023-05-02T13:01:31.683Z,3.65
2023-05-02T13:03:58.395Z,3.25
2023-05-02T13:06:25.110Z,3.42
2023-05-02T13:08:51.725Z,2.97
2023-05-02T13:11:18.435Z,3.85
2023-05-02T13:13:45.055Z,3.22
2023-05-02T13:16:11.811Z,2.83
2023-05-02T13:18:38.629Z,3.28
2023-05-02T13:21:05.238Z,2.70
2023-05-02T13:23:31.834Z,2.70
2023-05-02T13:25:58.442Z,3.08
2023-05-02T13:28:25.944Z,2.80
2023-05-02T13:30:52.661Z,2.67
2023-05-02T13:33:19.796Z,2.55
2023-05-02T13:35:46.632Z,3.10
2023-05-02T13:38:13.214Z,2.60
2023-05-02T13:40:39.882Z,2.97
2023-05-02T13:43:06.726Z,2.75
2023-05-02T13:45:33.328Z,2.60
2023-05-02T13:48:00.316Z,3.00
2023-05-02T13:50:26.923Z,2.60
2023-05-02T13:52:53.537Z,3.03
2023-05-02T13:55:20.180Z,2.90
2023-05-02T13:57:46.984Z,3.10
2023-05-02T14:00:14.168Z,3.15
2023-05-02T14:02:40.826Z,2.70
2023-05-02T14:05:07.989Z,2.55
2023-05-02T14:07:34.560Z,2.60
2023-05-02T14:10:01.464Z,2.83
2023-05-02T14:12:28.399Z,2.75
2023-05-02T14:14:54.973Z,2.92
2023-05-02T14:17:21.746Z,2.30
2023-05-02T14:19:48.410Z,2.55
2023-05-02T14:22:14.999Z,2.38
2023-05-02T14:24:41.611Z,2.40
2023-05-02T14:27:12.921Z,2.55
2023-05-02T14:29:39.980Z,2.30
2023-05-02T14:32:06.596Z,2.70
2023-05-02T14:34:33.168Z,2.40
2023-05-02T14:36:59.768Z,2.63
2023-05-02T14:39:27.634Z,2.35
2023-05-02T14:41:54.379Z,2.25
2023-05-02T14:44:20.961Z,2.80
2023-05-02T14:46:47.707Z,2.75
2023-05-02T14:49:14.459Z,2.10
2023-05-02T14:51:41.155Z,2.28
2023-05-02T14:54:07.830Z,2.35
2023-05-02T14:56:34.441Z,2.10
2023-05-02T14:59:01.065Z,2.55
2023-05-02T15:01:27.862Z,2.00
2023-05-02T15:04:05.330Z,2.20
2023-05-02T15:06:34.227Z,1.83
2023-05-02T15:09:01.799Z,2.42
2023-05-02T15:11:28.437Z,2.03
2023-05-02T15:13:56.745Z,2.10
2023-05-02T15:16:24.984Z,2.10
2023-05-02T15:18:51.599Z,1.80
2023-05-02T15:21:18.155Z,2.03
2023-05-02T15:23:44.741Z,1.90
2023-05-02T15:26:11.333Z,1.65
2023-05-02T15:28:38.093Z,1.73
2023-05-02T15:31:05.065Z,1.67
2023-05-02T15:33:31.648Z,1.92
2023-05-02T15:35:58.779Z,1.92
2023-05-02T15:38:25.869Z,1.50
2023-05-02T15:40:59.785Z,2.25
2023-05-02T15:43:27.125Z,1.70
2023-05-02T15:45:55.160Z,1.45
2023-05-02T15:48:22.633Z,1.38
2023-05-02T15:50:49.288Z,1.80
2023-05-02T15:53:16.760Z,1.48
2023-05-02T15:55:45.954Z,1.30
2023-05-02T15:58:13.207Z,1.65
2023-05-02T16:00:39.829Z,1.40
2023-05-02T16:03:06.564Z,1.20
2023-05-02T16:05:33.427Z,1.42
2023-05-02T16:08:00.280Z,1.88
2023-05-02T16:10:27.315Z,1.45
2023-05-02T16:12:53.939Z,1.83
2023-05-02T16:15:21.387Z,1.77
2023-05-02T16:17:49.103Z,1.23
2023-05-02T16:20:16.539Z,2.03
2023-05-02T16:22:46.959Z,2.00
2023-05-02T16:25:14.692Z,1.70
2023-05-02T16:27:41.320Z,1.48
2023-05-02T16:30:08.574Z,1.33
2023-05-02T16:32:35.351Z,1.45
2023-05-02T16:35:02.469Z,1.45
2023-05-02T16:37:29.118Z,1.38
2023-05-02T16:39:57.804Z,1.60
2023-05-02T16:42:24.522Z,1.70
2023-05-02T16:44:51.144Z,1.65
2023-05-02T16:47:18.211Z,1.58
2023-05-02T16:49:45.738Z,1.48
2023-05-02T16:52:12.329Z,1.20
2023-05-02T16:54:39.037Z,1.52
2023-05-02T16:57:05.648Z,1.30
2023-05-02T16:59:32.259Z,1.30
2023-05-02T17:01:58.980Z,1.42
2023-05-02T17:04:25.578Z,1.40
2023-05-02T17:06:54.641Z,1.60
2023-05-02T17:09:21.265Z,1.58
2023-05-02T17:11:47.858Z,1.50
2023-05-02T17:14:14.437Z,1.40
2023-05-02T17:16:41.151Z,1.80
2023-05-02T17:19:07.780Z,1.40
2023-05-02T17:21:35.826Z,1.20
2023-05-02T17:24:02.614Z,1.52
2023-05-02T17:26:29.367Z,1.30
2023-05-02T17:28:56.033Z,1.58
2023-05-02T17:31:23.533Z,1.90
2023-05-02T17:33:50.327Z,1.40
2023-05-02T17:36:16.938Z,1.08
2023-05-02T17:38:45.058Z,1.27
2023-05-02T17:41:12.219Z,1.30
2023-05-02T17:43:38.940Z,1.38
2023-05-02T17:46:09.856Z,1.60
2023-05-02T17:48:37.107Z,1.60
2023-05-02T17:51:04.752Z,1.48
2023-05-02T17:53:31.494Z,1.20
2023-05-02T17:55:58.085Z,1.15
2023-05-02T17:58:24.676Z,1.20
2023-05-02T18:00:51.958Z,1.25
2023-05-02T18:03:18.648Z,1.30
2023-05-02T18:05:47.379Z,2.20
2023-05-02T18:08:14.470Z,1.35
2023-05-02T18:10:41.900Z,0.95
2023-05-02T18:13:08.691Z,1.25
2023-05-02T18:15:35.364Z,1.30
2023-05-02T18:18:02.018Z,1.73
2023-05-02T18:20:28.626Z,1.40
2023-05-02T18:22:57.256Z,1.10
2023-05-02T18:25:23.850Z,1.17
2023-05-02T18:27:51.270Z,1.40
2023-05-02T18:30:17.844Z,1.17
2023-05-02T18:32:44.427Z,1.60
2023-05-02T18:35:11.236Z,1.77
2023-05-02T18:37:37.886Z,1.52
2023-05-02T18:40:04.875Z,1.35
2023-05-02T18:42:32.038Z,1.40
2023-05-02T18:44:58.611Z,1.10
2023-05-02T18:47:25.502Z,1.40
2023-05-02T18:49:52.168Z,1.67
2023-05-02T18:52:19.053Z,1.33
2023-05-02T18:54:45.661Z,1.30
2023-05-02T18:57:12.684Z,1.10
2023-05-02T18:59:39.444Z,1.25
2023-05-02T19:02:06.069Z,1.02
2023-05-02T19:04:32.920Z,0.95
2023-05-02T19:06:59.469Z,1.13
2023-05-02T19:09:26.047Z,1.20
2023-05-02T19:11:54.977Z,1.30
2023-05-02T19:14:21.541Z,0.80
2023-05-02T19:16:48.107Z,1.33
2023-05-02T19:19:14.667Z,1.73
2023-05-02T19:21:41.661Z,1.00
2023-05-02T19:24:08.290Z,0.80
2023-05-02T19:26:34.889Z,1.20
2023-05-02T19:29:01.468Z,1.52
2023-05-02T19:31:28.110Z,0.90
2023-05-02T19:33:55.004Z,1.15
2023-05-02T19:36:23.514Z,1.30
2023-05-02T19:41:26.387Z,1.00
2023-05-02T19:43:53.266Z,1.20
2023-05-02T19:46:20.047Z,1.23
2023-05-02T19:48:46.756Z,1.05
2023-05-02T19:51:13.411Z,2.40
2023-05-02T19:53:40.030Z,1.10
2023-05-02T19:56:09.483Z,1.17
2023-05-02T19:58:36.157Z,1.50
2023-05-02T20:01:03.432Z,1.17
2023-05-02T20:03:30.258Z,1.20
2023-05-02T20:05:58.502Z,1.45
2023-05-02T20:08:27.817Z,1.42
2023-05-02T20:10:56.816Z,1.70
2023-05-02T20:13:23.425Z,1.50
2023-05-02T20:15:51.135Z,2.35
2023-05-02T20:18:17.707Z,1.27
2023-05-02T20:20:44.366Z,2.03
2023-05-02T20:23:10.944Z,1.67
2023-05-02T20:25:37.536Z,1.27
2023-05-02T20:28:04.117Z,1.30
2023-05-02T20:30:31.318Z,1.33
2023-05-02T20:33:10.513Z,1.38
2023-05-02T20:35:41.161Z,1.15
2023-05-02T20:38:08.201Z,1.52
2023-05-02T20:40:35.294Z,1.20
2023-05-02T20:43:02.150Z,1.23
2023-05-02T20:45:28.775Z,1.20
2023-05-02T20:47:55.539Z,1.45
2023-05-02T20:50:22.422Z,1.20
2023-05-02T20:52:49.038Z,1.40
2023-05-02T20:55:15.664Z,1.30
2023-05-02T20:57:42.290Z,1.40
2023-05-02T21:00:12.329Z,1.60
2023-05-02T21:02:39.156Z,1.10
2023-05-02T21:05:06.278Z,1.33
2023-05-02T21:07:32.928Z,1.65
2023-05-02T21:09:59.493Z,1.38
2023-05-02T21:12:26.143Z,1.63
2023-05-02T21:14:52.742Z,1.98
2023-05-02T21:17:19.371Z,1.30
2023-05-02T21:19:45.986Z,1.55
